الصفحة الرئيسية
METAR-TAF:

METAR-TAF

مطار :

مطار كلارك الدولي

Angeles, الفلبين

دائرة عرض: 15-11N, خط طول: 120-33E, ارتفاع: 148 متر

مراقبة الطقس الحالي

تاريخ ووقت الإصدار 56 دقيقة قبل الساعة 13:00UTC
ريح 4 عقدة من الجنوب
درجة الحرارة 28°درجة مئوية
الرطوبة 70%
ضغط 1016 hPa
الرؤية 10 كم أو أكثر
غيوم قليلة على ارتفاع 2000 قدم
غيوم مفككة على ارتفاع 30000 قدم

METAR: RPLC 101300Z 18004KT 9999 FEW020 BKN300 28/22 Q1016 NOSIG RMK A3000

زمن: 21:56 (13:56 UTC)

توقعات

تاريخ ووقت الإصدار 2ساعات و 56 دقيقة قبل الساعة 11:00UTC
التوقعات صالحة من10 الساعة 12 UTC إلى 11 الساعة 18 UTC
ريح 8 عقدة من الشمال/الشمال الغربي
الرؤية 10 كم أو أكثر
غيوم متفرقة على ارتفاع 2000 قدم
غيوم مفككة على ارتفاع 10000 قدم
مؤقت
من 10 الساعة 12 UTC إلى 10 الساعة 18 UTC
ريح 7 عقدة من الشمال
غيوم متفرقة على ارتفاع 2000 قدم
غيوم مفككة على ارتفاع 30000 قدم

TAF: RPLC 101100Z 1012/1118 34008KT 9999 SCT020 BKN100 TX35/1106Z TN25/1022Z TEMPO 1012/1018 36007KT SCT020 BKN300

أرصاد الطقس والتوقعات من أكثر من 4000 مطار (تقارير الطقس للمطار METAR والتنبؤ بالطقس بالمطارTAF).

المحطات المتاحة هي النقط الصفراء والحمراء على الخريطة.

حرك المؤشر فوق النقطة لمعرفة اسم المحطة.

ثم انقر لمعرفة أرصاد وتوقعات الطقس.

لتغيير الخارطة: اضغط على الأزرار الخضراء مع رمز الصليب الأسود للتكبير. على الزر الأخضر مع شرطة للتصغير، أو على الأسهم الخضراء للخرائط المجاورة.


METAR-TAF: